createdAt,value
2022-10-05T00:00:17.878Z,99.90
2022-10-05T00:03:10.845Z,99.90
2022-10-05T00:05:57.401Z,99.90
2022-10-05T00:08:43.083Z,99.90
2022-10-05T00:11:28.648Z,99.90
2022-10-05T00:14:33.222Z,99.90
2022-10-05T00:17:22.027Z,99.90
2022-10-05T00:20:22.904Z,99.90
2022-10-05T00:23:20.008Z,99.90
2022-10-05T00:26:19.882Z,99.90
2022-10-05T00:29:20.751Z,99.90
2022-10-05T00:32:06.383Z,99.90
2022-10-05T00:34:52.309Z,99.90
2022-10-05T00:37:38.275Z,99.90
2022-10-05T00:40:36.706Z,99.90
2022-10-05T00:43:39.067Z,99.90
2022-10-05T00:46:37.361Z,99.90
2022-10-05T00:49:36.421Z,99.90
2022-10-05T00:52:34.866Z,99.90
2022-10-05T00:55:46.222Z,99.90
2022-10-05T00:58:52.217Z,99.90
2022-10-05T01:01:44.090Z,99.90
2022-10-05T01:04:54.117Z,99.90
2022-10-05T01:07:52.692Z,99.90
2022-10-05T01:10:56.887Z,99.90
2022-10-05T01:14:04.325Z,99.90
2022-10-05T01:17:09.517Z,99.90
2022-10-05T01:20:11.503Z,99.90
2022-10-05T01:23:21.270Z,99.90
2022-10-05T01:26:34.456Z,99.90
2022-10-05T01:29:30.456Z,99.90
2022-10-05T01:32:27.091Z,99.90
2022-10-05T01:35:46.367Z,99.90
2022-10-05T01:38:37.473Z,99.90
2022-10-05T01:41:41.143Z,99.90
2022-10-05T01:44:33.367Z,99.90
2022-10-05T01:47:36.840Z,99.90
2022-10-05T01:50:42.032Z,99.90
2022-10-05T01:53:27.417Z,99.90
2022-10-05T01:56:21.966Z,99.90
2022-10-05T01:59:26.234Z,99.90
2022-10-05T02:02:16.780Z,99.90
2022-10-05T02:05:16.604Z,99.90
2022-10-05T02:08:11.408Z,99.90
2022-10-05T02:11:07.269Z,99.90
2022-10-05T02:14:02.877Z,99.90
2022-10-05T02:16:50.892Z,99.90
2022-10-05T02:19:56.465Z,99.90
2022-10-05T02:22:49.843Z,99.90
2022-10-05T02:25:40.670Z,99.90
2022-10-05T02:28:44.038Z,99.90
2022-10-05T02:31:38.070Z,99.90
2022-10-05T02:34:31.507Z,99.90
2022-10-05T02:37:46.484Z,99.90
2022-10-05T02:40:53.754Z,99.90
2022-10-05T02:44:01.114Z,99.90
2022-10-05T02:47:09.311Z,99.90
2022-10-05T02:50:06.091Z,99.90
2022-10-05T02:53:14.722Z,99.90
2022-10-05T02:56:18.726Z,99.90
2022-10-05T02:59:11.460Z,99.90
2022-10-05T03:02:03.482Z,99.90
2022-10-05T03:05:00.139Z,99.90
2022-10-05T03:08:03.517Z,99.90
2022-10-05T03:11:10.218Z,99.90
2022-10-05T03:14:26.113Z,99.90
2022-10-05T03:17:19.555Z,99.90
2022-10-05T03:20:37.025Z,99.90
2022-10-05T03:24:00.375Z,99.90
2022-10-05T03:27:20.141Z,99.90
2022-10-05T03:30:14.832Z,99.90
2022-10-05T03:33:27.618Z,99.90
2022-10-05T03:36:44.763Z,99.90
2022-10-05T03:39:57.758Z,99.90
2022-10-05T03:43:01.170Z,99.90
2022-10-05T03:46:05.983Z,99.90
2022-10-05T03:49:20.318Z,99.90
2022-10-05T03:52:17.673Z,99.90
2022-10-05T03:55:26.354Z,99.90
2022-10-05T03:58:45.315Z,99.90
2022-10-05T04:01:47.887Z,99.90
2022-10-05T04:05:05.875Z,99.90
2022-10-05T04:08:00.150Z,99.90
2022-10-05T04:10:52.706Z,99.90
2022-10-05T04:13:49.776Z,99.90
2022-10-05T04:16:42.978Z,99.90
2022-10-05T04:19:38.941Z,99.90
2022-10-05T04:22:58.285Z,99.90
2022-10-05T04:25:51.799Z,99.90
2022-10-05T04:28:55.635Z,99.90
2022-10-05T04:32:04.642Z,99.90
2022-10-05T04:35:15.768Z,99.90
2022-10-05T04:38:22.339Z,99.90
2022-10-05T04:41:24.293Z,99.90
2022-10-05T04:44:20.286Z,99.90
2022-10-05T04:47:53.135Z,99.90
2022-10-05T04:50:47.796Z,99.90
2022-10-05T04:53:53.655Z,99.90
2022-10-05T04:56:43.679Z,99.90
2022-10-05T04:59:59.646Z,99.90
2022-10-05T05:03:23.822Z,99.90
2022-10-05T05:06:28.055Z,99.90
2022-10-05T05:10:00.629Z,99.90
2022-10-05T05:13:05.035Z,99.90
2022-10-05T05:15:58.773Z,99.90
2022-10-05T05:19:09.147Z,99.90
2022-10-05T05:22:03.110Z,99.90
2022-10-05T05:25:14.091Z,99.90
2022-10-05T05:28:37.643Z,99.90
2022-10-05T05:31:54.307Z,99.90
2022-10-05T05:34:45.743Z,99.90
2022-10-05T05:37:37.199Z,99.90
2022-10-05T05:40:28.380Z,99.90
2022-10-05T05:43:24.383Z,99.90
2022-10-05T05:47:02.236Z,99.90
2022-10-05T05:49:53.170Z,99.90
2022-10-05T05:52:46.449Z,99.90
2022-10-05T05:55:56.026Z,99.90
2022-10-05T05:58:57.698Z,99.90
2022-10-05T06:01:52.048Z,99.90
2022-10-05T06:05:10.801Z,99.90
2022-10-05T06:08:01.234Z,99.90
2022-10-05T06:10:57.557Z,99.90
2022-10-05T06:13:43.548Z,99.90
2022-10-05T06:16:36.812Z,99.90
2022-10-05T06:19:24.093Z,99.90
2022-10-05T06:22:33.064Z,99.90
2022-10-05T06:25:50.504Z,99.90
2022-10-05T06:28:37.330Z,99.90
2022-10-05T06:31:48.587Z,99.90
2022-10-05T06:35:06.115Z,99.90
2022-10-05T06:38:06.732Z,99.90
2022-10-05T06:41:17.376Z,99.90
2022-10-05T06:44:28.898Z,99.90
2022-10-05T06:48:01.574Z,99.90
2022-10-05T06:51:10.080Z,99.90
2022-10-05T06:54:34.176Z,99.90
2022-10-05T06:57:36.673Z,99.90
2022-10-05T07:00:25.273Z,99.90
2022-10-05T07:03:39.043Z,99.90
2022-10-05T07:06:35.086Z,99.90
2022-10-05T07:09:40.490Z,99.90
2022-10-05T07:13:23.995Z,99.90
2022-10-05T07:16:46.588Z,99.90
2022-10-05T07:19:56.141Z,99.90
2022-10-05T07:23:06.809Z,99.90
2022-10-05T07:26:03.385Z,99.90
2022-10-05T07:29:12.783Z,99.90
2022-10-05T07:32:21.809Z,99.90
2022-10-05T07:35:35.704Z,99.90
2022-10-05T07:38:41.126Z,99.90
2022-10-05T07:41:41.864Z,99.90
2022-10-05T07:44:39.078Z,99.90
2022-10-05T07:47:50.837Z,96.30
2022-10-05T07:50:49.638Z,92.00
2022-10-05T07:54:10.712Z,88.20
2022-10-05T07:57:17.240Z,80.40
2022-10-05T08:00:06.912Z,76.60
2022-10-05T08:03:01.762Z,80.00
2022-10-05T08:05:47.562Z,78.90
2022-10-05T08:08:49.695Z,77.20
2022-10-05T08:11:50.997Z,72.30
2022-10-05T08:14:53.168Z,72.90
2022-10-05T08:17:50.608Z,72.90
2022-10-05T08:20:45.072Z,67.70
2022-10-05T08:23:49.242Z,64.20
2022-10-05T08:26:51.673Z,63.20
2022-10-05T08:30:01.423Z,61.70
2022-10-05T08:33:19.271Z,62.60
2022-10-05T08:36:12.508Z,57.90
2022-10-05T08:39:04.105Z,56.50
2022-10-05T08:42:07.616Z,58.20
2022-10-05T08:45:11.974Z,58.60
2022-10-05T08:47:57.520Z,54.90
2022-10-05T08:51:01.764Z,51.70
2022-10-05T08:54:09.170Z,52.50
2022-10-05T08:57:09.418Z,53.00
2022-10-05T09:00:18.705Z,51.60
2022-10-05T09:03:34.419Z,51.20
2022-10-05T09:06:51.100Z,54.20
2022-10-05T09:10:03.625Z,48.70
2022-10-05T09:13:10.513Z,48.90
2022-10-05T09:16:44.272Z,43.90
2022-10-05T09:20:07.278Z,45.70
2022-10-05T09:23:00.091Z,39.50
2022-10-05T09:26:08.856Z,40.70
2022-10-05T09:29:05.593Z,39.30
2022-10-05T09:32:16.711Z,41.40
2022-10-05T09:35:37.353Z,40.30
2022-10-05T09:38:54.675Z,39.00
2022-10-05T09:41:42.601Z,36.40
2022-10-05T09:44:45.917Z,36.20
2022-10-05T09:47:39.013Z,36.50
2022-10-05T09:50:44.296Z,35.40
2022-10-05T09:54:07.261Z,29.90
2022-10-05T09:56:55.650Z,30.00
2022-10-05T10:00:21.830Z,30.60
2022-10-05T10:03:45.024Z,30.10
2022-10-05T10:07:02.386Z,29.00
2022-10-05T10:10:06.383Z,30.00
2022-10-05T10:13:25.659Z,28.00
2022-10-05T10:16:49.840Z,25.30
2022-10-05T10:20:13.935Z,27.50
2022-10-05T10:23:08.218Z,30.20
2022-10-05T10:25:53.395Z,29.30
2022-10-05T10:29:10.227Z,27.20
2022-10-05T10:32:01.722Z,27.90
2022-10-05T10:34:55.773Z,27.20
2022-10-05T10:38:06.028Z,24.80
2022-10-05T10:40:57.040Z,31.90
2022-10-05T10:44:17.268Z,31.40
2022-10-05T10:47:14.956Z,27.40
2022-10-05T10:50:38.416Z,26.80
2022-10-05T10:53:38.118Z,24.30
2022-10-05T10:57:08.084Z,21.50
2022-10-05T11:00:22.458Z,18.90
2022-10-05T11:03:31.554Z,22.90
2022-10-05T11:06:45.019Z,22.80
2022-10-05T11:09:30.468Z,19.30
2022-10-05T11:12:54.363Z,19.30
2022-10-05T11:16:04.745Z,19.20
2022-10-05T11:19:05.018Z,17.20
2022-10-05T11:22:13.661Z,17.20
2022-10-05T11:25:20.990Z,12.40
2022-10-05T11:28:35.855Z,12.70
2022-10-05T11:31:47.103Z,14.40
2022-10-05T11:34:58.971Z,12.10
2022-10-05T11:38:02.071Z,12.60
2022-10-05T11:41:02.686Z,15.20
2022-10-05T11:44:06.133Z,14.10
2022-10-05T11:46:58.456Z,12.80
2022-10-05T11:49:56.056Z,12.10
2022-10-05T11:53:13.981Z,12.50
2022-10-05T11:56:38.215Z,13.40
2022-10-05T11:59:35.637Z,12.50
2022-10-05T12:02:42.934Z,10.00
2022-10-05T12:05:48.677Z,12.20
2022-10-05T12:08:37.157Z,13.30
2022-10-05T12:11:41.067Z,12.70
2022-10-05T12:14:49.469Z,11.50
2022-10-05T12:17:38.580Z,13.90
2022-10-05T12:20:38.325Z,9.50
2022-10-05T12:23:40.054Z,12.40
2022-10-05T12:26:44.761Z,15.40
2022-10-05T12:29:44.471Z,13.20
2022-10-05T12:33:02.562Z,14.40
2022-10-05T12:35:53.780Z,10.40
2022-10-05T12:39:30.206Z,14.40
2022-10-05T12:42:21.659Z,13.10
2022-10-05T12:45:19.890Z,13.50
2022-10-05T12:48:05.180Z,15.30
2022-10-05T12:51:14.727Z,14.30
2022-10-05T12:54:20.234Z,14.20
2022-10-05T12:57:20.797Z,13.70
2022-10-05T13:00:21.733Z,12.00
2022-10-05T13:03:33.991Z,13.00
2022-10-05T13:06:47.093Z,12.80
2022-10-05T13:09:37.034Z,13.50
2022-10-05T13:12:42.903Z,12.30
2022-10-05T13:15:48.290Z,12.60
2022-10-05T13:19:22.014Z,13.00
2022-10-05T13:22:30.579Z,10.70
2022-10-05T13:25:36.275Z,12.40
2022-10-05T13:28:42.882Z,12.90
2022-10-05T13:31:54.534Z,13.20
2022-10-05T13:34:49.109Z,11.50
2022-10-05T13:38:01.811Z,10.10
2022-10-05T13:41:17.551Z,13.40
2022-10-05T13:44:25.164Z,13.80
2022-10-05T13:47:35.981Z,11.60
2022-10-05T13:50:33.719Z,9.30
2022-10-05T13:53:23.919Z,10.40
2022-10-05T13:56:15.346Z,7.10
2022-10-05T13:59:43.262Z,7.50
2022-10-05T14:02:38.519Z,11.50
2022-10-05T14:05:29.582Z,11.00
2022-10-05T14:08:18.866Z,10.30
2022-10-05T14:11:31.318Z,13.10
2022-10-05T14:14:25.865Z,11.30
2022-10-05T14:17:34.741Z,10.70
2022-10-05T14:20:27.631Z,8.40
2022-10-05T14:23:25.685Z,7.30
2022-10-05T14:26:30.123Z,8.10
2022-10-05T14:29:15.510Z,10.80
2022-10-05T14:32:02.339Z,9.00
2022-10-05T14:35:05.220Z,12.50
2022-10-05T14:37:50.679Z,11.60
2022-10-05T14:40:37.867Z,10.80
2022-10-05T14:43:23.292Z,9.90
2022-10-05T14:46:26.995Z,11.60
2022-10-05T14:49:24.263Z,11.60
2022-10-05T14:52:35.169Z,9.50
2022-10-05T14:55:51.161Z,8.50
2022-10-05T14:58:58.264Z,7.70
2022-10-05T15:01:58.845Z,10.00
2022-10-05T15:05:07.464Z,9.20
2022-10-05T15:08:00.040Z,8.20
2022-10-05T15:11:00.699Z,10.30
2022-10-05T15:13:49.818Z,11.90
2022-10-05T15:16:39.126Z,11.00
2022-10-05T15:19:32.731Z,10.30
2022-10-05T15:22:41.331Z,7.70
2022-10-05T15:25:40.484Z,9.00
2022-10-05T15:28:48.497Z,8.50
2022-10-05T15:31:52.551Z,10.20
2022-10-05T15:35:09.566Z,9.20
2022-10-05T15:38:23.155Z,12.40
2022-10-05T15:41:17.903Z,11.20
2022-10-05T15:44:21.202Z,11.90
2022-10-05T15:47:27.495Z,13.40
2022-10-05T15:50:55.433Z,14.80
2022-10-05T15:54:30.943Z,15.00
2022-10-05T15:57:33.551Z,16.20
2022-10-05T16:00:20.832Z,16.00
2022-10-05T16:03:25.812Z,16.40
2022-10-05T16:06:45.936Z,16.60
2022-10-05T16:09:59.784Z,17.80
2022-10-05T16:12:58.763Z,18.70
2022-10-05T16:16:16.147Z,19.40
2022-10-05T16:19:29.737Z,20.10
2022-10-05T16:22:46.733Z,20.20
2022-10-05T16:26:05.314Z,21.00
2022-10-05T16:29:28.950Z,20.70
2022-10-05T16:32:31.253Z,21.90
2022-10-05T16:35:49.268Z,21.50
2022-10-05T16:38:54.269Z,23.10
2022-10-05T16:41:55.499Z,24.10
2022-10-05T16:45:08.058Z,23.20
2022-10-05T16:48:02.780Z,25.40
2022-10-05T16:50:50.897Z,26.60
2022-10-05T16:53:36.362Z,26.50
2022-10-05T16:56:27.593Z,27.30
2022-10-05T16:59:30.050Z,28.80
2022-10-05T17:02:39.865Z,29.40
2022-10-05T17:05:59.254Z,30.10
2022-10-05T17:09:15.611Z,30.40
2022-10-05T17:12:12.070Z,31.40
2022-10-05T17:14:57.252Z,33.00
2022-10-05T17:17:58.486Z,33.90
2022-10-05T17:21:02.869Z,34.30
2022-10-05T17:24:13.381Z,35.50
2022-10-05T17:27:16.139Z,36.20
2022-10-05T17:30:23.568Z,36.70
2022-10-05T17:33:13.544Z,37.00
2022-10-05T17:36:04.648Z,38.30
2022-10-05T17:39:12.269Z,39.00
2022-10-05T17:42:27.704Z,40.10
2022-10-05T17:45:13.121Z,40.10
2022-10-05T17:48:00.516Z,41.20
2022-10-05T17:51:06.317Z,41.30
2022-10-05T17:54:10.162Z,42.20
2022-10-05T17:56:58.283Z,42.70
2022-10-05T17:59:52.763Z,44.70
2022-10-05T18:02:42.726Z,44.40
2022-10-05T18:05:29.516Z,45.20
2022-10-05T18:08:16.519Z,45.40
2022-10-05T18:11:35.504Z,46.00
2022-10-05T18:14:25.160Z,45.80
2022-10-05T18:17:13.914Z,46.90
2022-10-05T18:20:30.829Z,46.10
2022-10-05T18:23:20.865Z,46.50
2022-10-05T18:26:20.327Z,47.10
2022-10-05T18:29:40.872Z,47.00
2022-10-05T18:33:03.616Z,48.90
2022-10-05T18:35:55.053Z,48.70
2022-10-05T18:39:08.309Z,49.50
2022-10-05T18:42:01.659Z,49.70
2022-10-05T18:44:52.910Z,48.70
2022-10-05T18:47:53.621Z,49.70
2022-10-05T18:51:03.334Z,50.00
2022-10-05T18:54:01.689Z,50.30
2022-10-05T18:56:51.804Z,50.20
2022-10-05T18:59:54.794Z,50.50
2022-10-05T19:03:06.323Z,51.30
2022-10-05T19:05:59.883Z,51.70
2022-10-05T19:08:50.652Z,52.10
2022-10-05T19:11:49.903Z,53.40
2022-10-05T19:14:35.725Z,54.30
2022-10-05T19:17:54.637Z,53.60
2022-10-05T19:20:54.261Z,54.40
2022-10-05T19:24:09.853Z,56.00
2022-10-05T19:27:07.314Z,56.20
2022-10-05T19:30:18.921Z,55.80
2022-10-05T19:33:41.332Z,54.90
2022-10-05T19:36:53.312Z,58.10
2022-10-05T19:39:51.208Z,57.00
2022-10-05T19:42:59.740Z,57.80
2022-10-05T19:46:02.518Z,58.00
2022-10-05T19:48:51.568Z,59.40
2022-10-05T19:51:50.348Z,59.20
2022-10-05T19:54:35.841Z,58.50
2022-10-05T19:57:21.560Z,59.10
2022-10-05T20:00:07.650Z,59.10
2022-10-05T20:03:14.304Z,59.10
2022-10-05T20:06:01.518Z,59.40
2022-10-05T20:08:50.756Z,59.60
2022-10-05T20:11:49.435Z,61.20
2022-10-05T20:14:59.097Z,61.80
2022-10-05T20:18:03.439Z,61.80
2022-10-05T20:20:49.508Z,62.90
2022-10-05T20:23:36.028Z,62.90
2022-10-05T20:27:03.661Z,62.20
2022-10-05T20:29:48.909Z,62.70
2022-10-05T20:32:34.535Z,62.90
2022-10-05T20:35:25.229Z,65.80
2022-10-05T20:38:11.029Z,65.50
2022-10-05T20:40:56.195Z,64.90
2022-10-05T20:43:41.996Z,64.70
2022-10-05T20:46:27.591Z,65.90
2022-10-05T20:49:13.392Z,66.70
2022-10-05T20:51:59.138Z,66.20
2022-10-05T20:57:30.206Z,65.40
2022-10-05T21:00:15.823Z,66.40
2022-10-05T21:03:01.402Z,66.70
2022-10-05T21:05:47.278Z,67.20
2022-10-05T21:08:32.528Z,66.90
2022-10-05T21:11:18.264Z,66.70
2022-10-05T21:14:05.802Z,67.70
2022-10-05T21:16:52.437Z,69.90
2022-10-05T21:19:40.928Z,71.10
2022-10-05T21:22:26.499Z,70.80
2022-10-05T21:25:11.826Z,71.10
2022-10-05T21:27:57.280Z,72.10
2022-10-05T21:30:42.626Z,72.00
2022-10-05T21:33:28.684Z,72.30
2022-10-05T21:36:21.118Z,72.90
2022-10-05T21:39:09.481Z,74.10
2022-10-05T21:41:55.098Z,76.20
2022-10-05T21:44:40.407Z,78.20
2022-10-05T21:47:26.114Z,79.10
2022-10-05T21:50:11.753Z,78.90
2022-10-05T21:52:57.049Z,78.70
2022-10-05T21:55:45.888Z,78.20
2022-10-05T21:58:31.962Z,77.70
2022-10-05T22:01:22.472Z,77.50
2022-10-05T22:04:08.591Z,78.40
2022-10-05T22:06:55.407Z,80.30
2022-10-05T22:09:40.865Z,84.30
2022-10-05T22:12:26.823Z,86.30
2022-10-05T22:15:12.161Z,86.30
2022-10-05T22:17:58.930Z,87.20
2022-10-05T22:20:45.955Z,85.90
2022-10-05T22:23:32.077Z,87.90
2022-10-05T22:26:20.923Z,89.30
2022-10-05T22:29:06.766Z,89.50
2022-10-05T22:31:54.861Z,91.70
2022-10-05T22:34:40.073Z,93.10
2022-10-05T22:37:25.809Z,95.60
2022-10-05T22:40:11.923Z,99.90
2022-10-05T22:42:57.811Z,99.90
2022-10-05T22:45:43.390Z,99.90
2022-10-05T22:48:29.029Z,99.90
2022-10-05T22:51:15.944Z,99.90
2022-10-05T22:54:01.876Z,99.90
2022-10-05T22:56:47.526Z,99.90
2022-10-05T22:59:33.075Z,99.90
2022-10-05T23:02:19.894Z,99.90
2022-10-05T23:05:05.972Z,99.90
2022-10-05T23:07:51.606Z,99.90
2022-10-05T23:10:36.800Z,99.90
2022-10-05T23:13:22.565Z,99.90
2022-10-05T23:16:07.781Z,99.90
2022-10-05T23:18:54.063Z,99.90
2022-10-05T23:21:40.044Z,99.90
2022-10-05T23:24:25.543Z,99.90
2022-10-05T23:27:11.039Z,99.90
2022-10-05T23:29:56.676Z,99.90
2022-10-05T23:32:43.811Z,99.90
2022-10-05T23:35:29.401Z,99.90
2022-10-05T23:38:14.912Z,99.90
2022-10-05T23:41:00.788Z,99.90
2022-10-05T23:43:46.377Z,99.90
2022-10-05T23:46:32.247Z,99.90
2022-10-05T23:49:17.454Z,99.90
2022-10-05T23:52:02.964Z,99.90
2022-10-05T23:54:48.490Z,99.90
2022-10-05T23:57:34.135Z,99.90
